sensor_id;sensor_type;location;lat;lon;timestamp;P1;durP1;ratioP1;P2;durP2;ratioP2
24381;SDS011;12502;50.678;7.172;2022-12-11T00:05:02;61.10;;;31.65;;
24381;SDS011;12502;50.678;7.172;2022-12-11T00:10:07;63.53;;;31.77;;
24381;SDS011;12502;50.678;7.172;2022-12-11T00:15:12;57.55;;;30.90;;
24381;SDS011;12502;50.678;7.172;2022-12-11T00:20:14;57.80;;;30.38;;
24381;SDS011;12502;50.678;7.172;2022-12-11T00:25:16;59.83;;;30.95;;
24381;SDS011;12502;50.678;7.172;2022-12-11T00:30:18;63.28;;;31.27;;
24381;SDS011;12502;50.678;7.172;2022-12-11T00:35:20;61.50;;;32.40;;
24381;SDS011;12502;50.678;7.172;2022-12-11T00:40:22;65.95;;;32.22;;
24381;SDS011;12502;50.678;7.172;2022-12-11T00:45:27;62.72;;;33.08;;
24381;SDS011;12502;50.678;7.172;2022-12-11T00:50:32;68.00;;;33.10;;
24381;SDS011;12502;50.678;7.172;2022-12-11T00:55:38;61.78;;;30.52;;
24381;SDS011;12502;50.678;7.172;2022-12-11T01:00:41;63.72;;;31.70;;
24381;SDS011;12502;50.678;7.172;2022-12-11T01:05:53;64.60;;;32.00;;
24381;SDS011;12502;50.678;7.172;2022-12-11T01:11:06;65.82;;;32.42;;
24381;SDS011;12502;50.678;7.172;2022-12-11T01:16:11;64.68;;;31.73;;
24381;SDS011;12502;50.678;7.172;2022-12-11T01:21:14;60.88;;;30.10;;
24381;SDS011;12502;50.678;7.172;2022-12-11T01:26:16;62.25;;;31.88;;
24381;SDS011;12502;50.678;7.172;2022-12-11T01:31:18;63.15;;;31.60;;
24381;SDS011;12502;50.678;7.172;2022-12-11T01:36:20;64.25;;;33.55;;
24381;SDS011;12502;50.678;7.172;2022-12-11T01:46:31;73.55;;;34.08;;
24381;SDS011;12502;50.678;7.172;2022-12-11T01:51:35;81.38;;;35.33;;
24381;SDS011;12502;50.678;7.172;2022-12-11T01:56:51;73.75;;;35.55;;
24381;SDS011;12502;50.678;7.172;2022-12-11T02:02:02;69.22;;;34.10;;
24381;SDS011;12502;50.678;7.172;2022-12-11T02:07:08;82.68;;;35.28;;
24381;SDS011;12502;50.678;7.172;2022-12-11T02:18:02;81.20;;;35.55;;
24381;SDS011;12502;50.678;7.172;2022-12-11T02:23:43;84.82;;;36.75;;
24381;SDS011;12502;50.678;7.172;2022-12-11T02:29:05;85.35;;;35.42;;
24381;SDS011;12502;50.678;7.172;2022-12-11T02:34:14;81.35;;;36.83;;
24381;SDS011;12502;50.678;7.172;2022-12-11T02:39:17;82.80;;;37.17;;
24381;SDS011;12502;50.678;7.172;2022-12-11T02:44:21;84.95;;;37.38;;
24381;SDS011;12502;50.678;7.172;2022-12-11T02:49:25;91.72;;;38.38;;
24381;SDS011;12502;50.678;7.172;2022-12-11T02:54:30;84.03;;;37.97;;
24381;SDS011;12502;50.678;7.172;2022-12-11T02:59:39;94.93;;;38.35;;
24381;SDS011;12502;50.678;7.172;2022-12-11T03:04:43;85.70;;;38.83;;
24381;SDS011;12502;50.678;7.172;2022-12-11T03:09:46;77.47;;;36.00;;
24381;SDS011;12502;50.678;7.172;2022-12-11T03:14:48;86.38;;;37.08;;
24381;SDS011;12502;50.678;7.172;2022-12-11T03:25:16;94.70;;;38.22;;
24381;SDS011;12502;50.678;7.172;2022-12-11T03:30:23;89.25;;;38.88;;
24381;SDS011;12502;50.678;7.172;2022-12-11T03:40:42;87.95;;;38.92;;
24381;SDS011;12502;50.678;7.172;2022-12-11T03:45:48;89.43;;;38.78;;
24381;SDS011;12502;50.678;7.172;2022-12-11T03:50:52;97.80;;;37.80;;
24381;SDS011;12502;50.678;7.172;2022-12-11T03:55:55;97.07;;;38.55;;
24381;SDS011;12502;50.678;7.172;2022-12-11T04:00:58;84.53;;;38.10;;
24381;SDS011;12502;50.678;7.172;2022-12-11T04:06:00;98.88;;;40.65;;
24381;SDS011;12502;50.678;7.172;2022-12-11T04:11:02;94.57;;;37.45;;
24381;SDS011;12502;50.678;7.172;2022-12-11T04:16:22;93.07;;;38.75;;
24381;SDS011;12502;50.678;7.172;2022-12-11T04:21:24;88.15;;;37.58;;
24381;SDS011;12502;50.678;7.172;2022-12-11T04:26:45;88.47;;;37.22;;
24381;SDS011;12502;50.678;7.172;2022-12-11T04:31:47;98.73;;;40.30;;
24381;SDS011;12502;50.678;7.172;2022-12-11T04:36:50;72.20;;;29.13;;
24381;SDS011;12502;50.678;7.172;2022-12-11T04:41:52;87.35;;;39.03;;
24381;SDS011;12502;50.678;7.172;2022-12-11T04:46:54;89.53;;;38.25;;
24381;SDS011;12502;50.678;7.172;2022-12-11T04:51:55;89.20;;;37.92;;
24381;SDS011;12502;50.678;7.172;2022-12-11T04:56:57;103.60;;;39.75;;
24381;SDS011;12502;50.678;7.172;2022-12-11T05:01:59;90.60;;;38.17;;
24381;SDS011;12502;50.678;7.172;2022-12-11T05:07:01;99.57;;;40.78;;
24381;SDS011;12502;50.678;7.172;2022-12-11T05:12:02;103.85;;;40.50;;
24381;SDS011;12502;50.678;7.172;2022-12-11T05:17:04;88.38;;;37.80;;
24381;SDS011;12502;50.678;7.172;2022-12-11T05:22:06;103.20;;;40.15;;
24381;SDS011;12502;50.678;7.172;2022-12-11T05:27:07;96.20;;;39.20;;
24381;SDS011;12502;50.678;7.172;2022-12-11T05:32:10;101.03;;;40.58;;
24381;SDS011;12502;50.678;7.172;2022-12-11T05:37:12;110.35;;;41.05;;
24381;SDS011;12502;50.678;7.172;2022-12-11T05:42:13;103.13;;;41.00;;
24381;SDS011;12502;50.678;7.172;2022-12-11T05:47:15;97.75;;;39.00;;
24381;SDS011;12502;50.678;7.172;2022-12-11T05:52:17;96.65;;;39.28;;
24381;SDS011;12502;50.678;7.172;2022-12-11T05:57:18;101.43;;;39.13;;
24381;SDS011;12502;50.678;7.172;2022-12-11T06:02:20;97.72;;;38.55;;
24381;SDS011;12502;50.678;7.172;2022-12-11T06:07:22;97.20;;;37.85;;
24381;SDS011;12502;50.678;7.172;2022-12-11T06:12:24;88.93;;;38.47;;
24381;SDS011;12502;50.678;7.172;2022-12-11T06:17:26;97.88;;;38.47;;
24381;SDS011;12502;50.678;7.172;2022-12-11T06:22:28;97.65;;;39.60;;
24381;SDS011;12502;50.678;7.172;2022-12-11T06:27:30;100.80;;;38.88;;
24381;SDS011;12502;50.678;7.172;2022-12-11T06:32:32;98.88;;;39.65;;
24381;SDS011;12502;50.678;7.172;2022-12-11T06:37:34;96.40;;;41.42;;
24381;SDS011;12502;50.678;7.172;2022-12-11T06:42:36;102.43;;;39.83;;
24381;SDS011;12502;50.678;7.172;2022-12-11T06:47:38;92.90;;;38.60;;
24381;SDS011;12502;50.678;7.172;2022-12-11T06:52:40;100.68;;;41.17;;
24381;SDS011;12502;50.678;7.172;2022-12-11T06:57:42;96.00;;;40.13;;
24381;SDS011;12502;50.678;7.172;2022-12-11T07:02:44;95.88;;;39.60;;
24381;SDS011;12502;50.678;7.172;2022-12-11T07:07:46;72.40;;;28.58;;
24381;SDS011;12502;50.678;7.172;2022-12-11T07:12:48;91.57;;;36.88;;
24381;SDS011;12502;50.678;7.172;2022-12-11T07:17:53;93.32;;;38.33;;
24381;SDS011;12502;50.678;7.172;2022-12-11T07:22:54;94.30;;;39.35;;
24381;SDS011;12502;50.678;7.172;2022-12-11T07:27:56;103.22;;;40.55;;
24381;SDS011;12502;50.678;7.172;2022-12-11T07:32:58;84.95;;;36.65;;
24381;SDS011;12502;50.678;7.172;2022-12-11T07:37:59;101.82;;;39.00;;
24381;SDS011;12502;50.678;7.172;2022-12-11T07:43:01;97.43;;;38.13;;
24381;SDS011;12502;50.678;7.172;2022-12-11T07:48:03;89.55;;;35.72;;
24381;SDS011;12502;50.678;7.172;2022-12-11T07:53:05;99.20;;;38.50;;
24381;SDS011;12502;50.678;7.172;2022-12-11T07:58:07;95.90;;;39.33;;
24381;SDS011;12502;50.678;7.172;2022-12-11T08:03:09;87.47;;;36.58;;
24381;SDS011;12502;50.678;7.172;2022-12-11T08:08:11;87.97;;;36.90;;
24381;SDS011;12502;50.678;7.172;2022-12-11T08:13:13;92.90;;;36.90;;
24381;SDS011;12502;50.678;7.172;2022-12-11T08:18:15;92.10;;;35.97;;
24381;SDS011;12502;50.678;7.172;2022-12-11T08:23:19;90.55;;;38.35;;
24381;SDS011;12502;50.678;7.172;2022-12-11T08:28:21;88.50;;;35.00;;
24381;SDS011;12502;50.678;7.172;2022-12-11T08:33:23;84.25;;;35.15;;
24381;SDS011;12502;50.678;7.172;2022-12-11T08:38:25;72.95;;;32.47;;
24381;SDS011;12502;50.678;7.172;2022-12-11T08:43:27;78.35;;;34.33;;
24381;SDS011;12502;50.678;7.172;2022-12-11T08:48:29;78.90;;;34.80;;
24381;SDS011;12502;50.678;7.172;2022-12-11T08:53:31;76.63;;;33.72;;
24381;SDS011;12502;50.678;7.172;2022-12-11T08:58:33;76.20;;;32.13;;
24381;SDS011;12502;50.678;7.172;2022-12-11T09:03:36;66.88;;;30.48;;
24381;SDS011;12502;50.678;7.172;2022-12-11T09:08:38;76.47;;;31.30;;
24381;SDS011;12502;50.678;7.172;2022-12-11T09:13:41;67.35;;;31.02;;
24381;SDS011;12502;50.678;7.172;2022-12-11T09:18:46;63.33;;;30.40;;
24381;SDS011;12502;50.678;7.172;2022-12-11T09:23:52;65.72;;;28.67;;
24381;SDS011;12502;50.678;7.172;2022-12-11T09:28:58;66.72;;;29.45;;
24381;SDS011;12502;50.678;7.172;2022-12-11T09:34:04;63.50;;;29.80;;
24381;SDS011;12502;50.678;7.172;2022-12-11T09:39:08;61.70;;;27.83;;
24381;SDS011;12502;50.678;7.172;2022-12-11T09:44:14;60.58;;;30.10;;
24381;SDS011;12502;50.678;7.172;2022-12-11T09:49:21;62.38;;;29.88;;
24381;SDS011;12502;50.678;7.172;2022-12-11T09:54:28;68.75;;;33.08;;
24381;SDS011;12502;50.678;7.172;2022-12-11T10:05:05;62.60;;;28.58;;
24381;SDS011;12502;50.678;7.172;2022-12-11T10:21:02;53.45;;;26.13;;
24381;SDS011;12502;50.678;7.172;2022-12-11T10:26:06;52.15;;;26.27;;
24381;SDS011;12502;50.678;7.172;2022-12-11T10:31:18;48.80;;;25.42;;
24381;SDS011;12502;50.678;7.172;2022-12-11T10:36:43;49.20;;;26.33;;
24381;SDS011;12502;50.678;7.172;2022-12-11T10:41:46;53.72;;;26.95;;
24381;SDS011;12502;50.678;7.172;2022-12-11T10:57:25;50.47;;;24.70;;
24381;SDS011;12502;50.678;7.172;2022-12-11T11:07:34;46.35;;;23.17;;
24381;SDS011;12502;50.678;7.172;2022-12-11T11:12:37;47.10;;;23.58;;
24381;SDS011;12502;50.678;7.172;2022-12-11T11:17:50;43.65;;;22.33;;
24381;SDS011;12502;50.678;7.172;2022-12-11T11:22:59;46.58;;;23.58;;
24381;SDS011;12502;50.678;7.172;2022-12-11T11:28:04;46.40;;;22.35;;
24381;SDS011;12502;50.678;7.172;2022-12-11T11:33:12;43.15;;;23.88;;
24381;SDS011;12502;50.678;7.172;2022-12-11T11:38:19;45.00;;;23.50;;
24381;SDS011;12502;50.678;7.172;2022-12-11T11:43:30;44.65;;;22.70;;
24381;SDS011;12502;50.678;7.172;2022-12-11T11:53:48;47.15;;;23.25;;
24381;SDS011;12502;50.678;7.172;2022-12-11T12:04:26;50.05;;;24.48;;
24381;SDS011;12502;50.678;7.172;2022-12-11T12:15:17;48.03;;;24.25;;
24381;SDS011;12502;50.678;7.172;2022-12-11T12:42:06;41.50;;;20.10;;
24381;SDS011;12502;50.678;7.172;2022-12-11T12:47:30;41.08;;;21.05;;
24381;SDS011;12502;50.678;7.172;2022-12-11T12:52:35;36.90;;;20.00;;
24381;SDS011;12502;50.678;7.172;2022-12-11T12:57:40;43.05;;;22.52;;
24381;SDS011;12502;50.678;7.172;2022-12-11T13:02:58;41.50;;;21.13;;
24381;SDS011;12502;50.678;7.172;2022-12-11T13:08:03;35.05;;;18.50;;
24381;SDS011;12502;50.678;7.172;2022-12-11T13:18:39;39.05;;;20.67;;
24381;SDS011;12502;50.678;7.172;2022-12-11T13:23:41;38.25;;;19.20;;
24381;SDS011;12502;50.678;7.172;2022-12-11T13:33:46;31.48;;;17.90;;
24381;SDS011;12502;50.678;7.172;2022-12-11T13:38:54;36.75;;;19.85;;
24381;SDS011;12502;50.678;7.172;2022-12-11T13:44:19;41.65;;;22.50;;
24381;SDS011;12502;50.678;7.172;2022-12-11T13:49:28;35.08;;;19.13;;
24381;SDS011;12502;50.678;7.172;2022-12-11T13:54:37;35.87;;;19.30;;
24381;SDS011;12502;50.678;7.172;2022-12-11T13:59:49;34.20;;;18.35;;
24381;SDS011;12502;50.678;7.172;2022-12-11T14:04:56;41.55;;;22.23;;
24381;SDS011;12502;50.678;7.172;2022-12-11T14:10:05;42.58;;;23.55;;
24381;SDS011;12502;50.678;7.172;2022-12-11T14:15:14;43.28;;;21.92;;
24381;SDS011;12502;50.678;7.172;2022-12-11T14:20:17;42.47;;;22.65;;
24381;SDS011;12502;50.678;7.172;2022-12-11T14:25:23;42.88;;;22.75;;
24381;SDS011;12502;50.678;7.172;2022-12-11T14:30:27;39.28;;;21.73;;
24381;SDS011;12502;50.678;7.172;2022-12-11T14:35:34;35.15;;;19.08;;
24381;SDS011;12502;50.678;7.172;2022-12-11T14:40:41;36.58;;;20.27;;
24381;SDS011;12502;50.678;7.172;2022-12-11T14:45:47;43.05;;;20.65;;
24381;SDS011;12502;50.678;7.172;2022-12-11T14:50:51;38.72;;;21.38;;
24381;SDS011;12502;50.678;7.172;2022-12-11T14:55:56;37.25;;;21.30;;
24381;SDS011;12502;50.678;7.172;2022-12-11T15:01:02;41.42;;;21.75;;
24381;SDS011;12502;50.678;7.172;2022-12-11T15:06:21;42.20;;;22.27;;
24381;SDS011;12502;50.678;7.172;2022-12-11T15:11:44;38.97;;;21.23;;
24381;SDS011;12502;50.678;7.172;2022-12-11T15:16:48;39.63;;;21.17;;
24381;SDS011;12502;50.678;7.172;2022-12-11T15:21:52;35.10;;;19.23;;
24381;SDS011;12502;50.678;7.172;2022-12-11T15:26:55;41.38;;;20.58;;
24381;SDS011;12502;50.678;7.172;2022-12-11T15:37:28;38.92;;;20.88;;
24381;SDS011;12502;50.678;7.172;2022-12-11T15:42:37;40.22;;;21.30;;
24381;SDS011;12502;50.678;7.172;2022-12-11T15:47:42;42.97;;;21.08;;
24381;SDS011;12502;50.678;7.172;2022-12-11T15:52:44;39.80;;;20.75;;
24381;SDS011;12502;50.678;7.172;2022-12-11T15:57:48;39.42;;;19.73;;
24381;SDS011;12502;50.678;7.172;2022-12-11T16:02:54;36.28;;;19.13;;
24381;SDS011;12502;50.678;7.172;2022-12-11T16:07:57;40.33;;;20.03;;
24381;SDS011;12502;50.678;7.172;2022-12-11T16:12:59;35.47;;;19.05;;
24381;SDS011;12502;50.678;7.172;2022-12-11T16:18:04;40.75;;;18.55;;
24381;SDS011;12502;50.678;7.172;2022-12-11T16:23:08;35.92;;;19.42;;
24381;SDS011;12502;50.678;7.172;2022-12-11T16:28:11;34.07;;;18.47;;
24381;SDS011;12502;50.678;7.172;2022-12-11T16:33:16;36.40;;;18.35;;
24381;SDS011;12502;50.678;7.172;2022-12-11T16:38:18;38.10;;;19.35;;
24381;SDS011;12502;50.678;7.172;2022-12-11T16:43:20;36.08;;;18.52;;
24381;SDS011;12502;50.678;7.172;2022-12-11T16:48:22;36.38;;;17.85;;
24381;SDS011;12502;50.678;7.172;2022-12-11T16:53:24;34.42;;;18.40;;
24381;SDS011;12502;50.678;7.172;2022-12-11T16:58:26;35.03;;;18.45;;
24381;SDS011;12502;50.678;7.172;2022-12-11T17:03:28;33.75;;;17.50;;
24381;SDS011;12502;50.678;7.172;2022-12-11T17:08:33;39.20;;;19.60;;
24381;SDS011;12502;50.678;7.172;2022-12-11T17:13:36;34.00;;;18.27;;
24381;SDS011;12502;50.678;7.172;2022-12-11T17:18:38;35.15;;;17.30;;
24381;SDS011;12502;50.678;7.172;2022-12-11T17:23:41;34.10;;;17.50;;
24381;SDS011;12502;50.678;7.172;2022-12-11T17:28:43;29.73;;;16.95;;
24381;SDS011;12502;50.678;7.172;2022-12-11T17:33:45;34.15;;;17.13;;
24381;SDS011;12502;50.678;7.172;2022-12-11T17:38:48;33.42;;;16.13;;
24381;SDS011;12502;50.678;7.172;2022-12-11T17:43:51;35.30;;;18.13;;
24381;SDS011;12502;50.678;7.172;2022-12-11T17:53:56;35.30;;;17.65;;
24381;SDS011;12502;50.678;7.172;2022-12-11T17:58:58;32.17;;;16.58;;
24381;SDS011;12502;50.678;7.172;2022-12-11T18:04:00;30.90;;;18.13;;
24381;SDS011;12502;50.678;7.172;2022-12-11T18:09:02;28.63;;;15.40;;
24381;SDS011;12502;50.678;7.172;2022-12-11T18:14:04;32.00;;;16.33;;
24381;SDS011;12502;50.678;7.172;2022-12-11T18:19:06;28.63;;;14.75;;
24381;SDS011;12502;50.678;7.172;2022-12-11T18:24:08;27.75;;;15.23;;
24381;SDS011;12502;50.678;7.172;2022-12-11T18:29:10;26.70;;;14.65;;
24381;SDS011;12502;50.678;7.172;2022-12-11T18:34:12;21.55;;;13.52;;
24381;SDS011;12502;50.678;7.172;2022-12-11T18:39:14;26.50;;;14.85;;
24381;SDS011;12502;50.678;7.172;2022-12-11T18:44:16;26.33;;;13.13;;
24381;SDS011;12502;50.678;7.172;2022-12-11T18:49:22;23.77;;;13.00;;
24381;SDS011;12502;50.678;7.172;2022-12-11T18:54:24;25.75;;;14.30;;
24381;SDS011;12502;50.678;7.172;2022-12-11T18:59:26;27.45;;;14.32;;
24381;SDS011;12502;50.678;7.172;2022-12-11T19:04:27;25.15;;;14.02;;
24381;SDS011;12502;50.678;7.172;2022-12-11T19:09:30;26.17;;;14.68;;
24381;SDS011;12502;50.678;7.172;2022-12-11T19:14:38;21.63;;;14.07;;
24381;SDS011;12502;50.678;7.172;2022-12-11T19:19:40;29.17;;;15.27;;
24381;SDS011;12502;50.678;7.172;2022-12-11T19:24:43;30.77;;;15.97;;
24381;SDS011;12502;50.678;7.172;2022-12-11T19:29:45;26.75;;;15.82;;
24381;SDS011;12502;50.678;7.172;2022-12-11T19:34:46;26.88;;;15.52;;
24381;SDS011;12502;50.678;7.172;2022-12-11T19:39:52;25.80;;;15.23;;
24381;SDS011;12502;50.678;7.172;2022-12-11T19:44:54;29.95;;;15.63;;
24381;SDS011;12502;50.678;7.172;2022-12-11T19:49:55;29.52;;;15.80;;
24381;SDS011;12502;50.678;7.172;2022-12-11T19:55:01;28.00;;;16.08;;
24381;SDS011;12502;50.678;7.172;2022-12-11T20:00:04;31.35;;;16.70;;
24381;SDS011;12502;50.678;7.172;2022-12-11T20:05:08;26.90;;;15.77;;
24381;SDS011;12502;50.678;7.172;2022-12-11T20:10:10;31.65;;;17.65;;
24381;SDS011;12502;50.678;7.172;2022-12-11T20:15:12;31.00;;;17.25;;
24381;SDS011;12502;50.678;7.172;2022-12-11T20:20:14;33.63;;;17.98;;
24381;SDS011;12502;50.678;7.172;2022-12-11T20:25:16;34.28;;;17.90;;
24381;SDS011;12502;50.678;7.172;2022-12-11T20:30:18;35.67;;;19.40;;
24381;SDS011;12502;50.678;7.172;2022-12-11T20:35:21;41.38;;;20.63;;
24381;SDS011;12502;50.678;7.172;2022-12-11T20:40:22;43.13;;;20.73;;
24381;SDS011;12502;50.678;7.172;2022-12-11T20:45:25;32.95;;;17.92;;
24381;SDS011;12502;50.678;7.172;2022-12-11T20:50:27;33.58;;;17.88;;
24381;SDS011;12502;50.678;7.172;2022-12-11T20:55:29;35.85;;;18.35;;
24381;SDS011;12502;50.678;7.172;2022-12-11T21:00:30;34.10;;;17.95;;
24381;SDS011;12502;50.678;7.172;2022-12-11T21:05:32;32.25;;;17.40;;
24381;SDS011;12502;50.678;7.172;2022-12-11T21:10:35;28.15;;;16.17;;
24381;SDS011;12502;50.678;7.172;2022-12-11T21:15:41;33.92;;;17.85;;
24381;SDS011;12502;50.678;7.172;2022-12-11T21:20:44;34.67;;;18.00;;
24381;SDS011;12502;50.678;7.172;2022-12-11T21:25:45;37.05;;;18.73;;
24381;SDS011;12502;50.678;7.172;2022-12-11T21:30:47;34.60;;;17.55;;
24381;SDS011;12502;50.678;7.172;2022-12-11T21:35:53;33.90;;;17.73;;
24381;SDS011;12502;50.678;7.172;2022-12-11T21:41:04;38.67;;;19.40;;
24381;SDS011;12502;50.678;7.172;2022-12-11T21:46:12;34.78;;;18.52;;
24381;SDS011;12502;50.678;7.172;2022-12-11T21:51:19;36.78;;;17.70;;
24381;SDS011;12502;50.678;7.172;2022-12-11T21:56:32;35.05;;;18.08;;
24381;SDS011;12502;50.678;7.172;2022-12-11T22:01:38;34.90;;;17.63;;
24381;SDS011;12502;50.678;7.172;2022-12-11T22:06:42;33.83;;;18.27;;
24381;SDS011;12502;50.678;7.172;2022-12-11T22:11:46;33.22;;;17.48;;
24381;SDS011;12502;50.678;7.172;2022-12-11T22:16:52;31.48;;;17.88;;
24381;SDS011;12502;50.678;7.172;2022-12-11T22:21:54;34.03;;;18.40;;
24381;SDS011;12502;50.678;7.172;2022-12-11T22:26:56;40.47;;;19.42;;
24381;SDS011;12502;50.678;7.172;2022-12-11T22:31:58;36.65;;;18.05;;
24381;SDS011;12502;50.678;7.172;2022-12-11T22:36:59;38.50;;;20.42;;
24381;SDS011;12502;50.678;7.172;2022-12-11T22:42:01;35.35;;;19.08;;
24381;SDS011;12502;50.678;7.172;2022-12-11T22:47:03;37.33;;;18.67;;
24381;SDS011;12502;50.678;7.172;2022-12-11T22:52:05;39.47;;;19.48;;
24381;SDS011;12502;50.678;7.172;2022-12-11T22:57:06;35.30;;;18.40;;
24381;SDS011;12502;50.678;7.172;2022-12-11T23:02:08;33.45;;;17.70;;
24381;SDS011;12502;50.678;7.172;2022-12-11T23:07:10;34.67;;;18.48;;
24381;SDS011;12502;50.678;7.172;2022-12-11T23:12:12;34.20;;;17.83;;
24381;SDS011;12502;50.678;7.172;2022-12-11T23:17:13;33.60;;;17.17;;
24381;SDS011;12502;50.678;7.172;2022-12-11T23:22:15;34.97;;;17.52;;
24381;SDS011;12502;50.678;7.172;2022-12-11T23:27:18;33.47;;;17.45;;
24381;SDS011;12502;50.678;7.172;2022-12-11T23:32:19;33.72;;;18.10;;
24381;SDS011;12502;50.678;7.172;2022-12-11T23:37:21;38.33;;;19.08;;
24381;SDS011;12502;50.678;7.172;2022-12-11T23:42:23;36.65;;;18.10;;
24381;SDS011;12502;50.678;7.172;2022-12-11T23:47:25;32.75;;;16.58;;
24381;SDS011;12502;50.678;7.172;2022-12-11T23:52:28;35.38;;;18.30;;
24381;SDS011;12502;50.678;7.172;2022-12-11T23:57:30;32.58;;;17.30;;
